Time;durP1;ratioP1;P1;durP2;ratioP2;P2;SDS_P1;SDS_P2;PMS_P1;PMS_P2;Temp;Humidity;BMP_temperature;BMP_pressure;BME280_temperature;BME280_humidity;BME280_pressure;Samples;Min_cycle;Max_cycle;Signal;HPM_P1;HPM_P2
2022/10/16 00:01:16;;;;;;;23.23;15.95;;;;;;;;;;5051573;28;20055;-62
2022/10/16 00:03:43;;;;;;;25.15;15.05;;;;;;;;;;5051354;28;20184;-60
2022/10/16 00:06:11;;;;;;;20.77;15.35;;;;;;;;;;5052345;28;20100;-64
2022/10/16 00:08:38;;;;;;;23.83;15.43;;;;;;;;;;5052419;28;20025;-62
2022/10/16 00:11:08;;;;;;;24.15;16.00;;;;;;;;;;5051380;28;20021;-63
2022/10/16 00:13:35;;;;;;;25.58;15.13;;;;;;;;;;5051219;28;20017;-63
2022/10/16 00:16:01;;;;;;;22.27;15.85;;;;;;;;;;5051615;28;20037;-64
2022/10/16 00:18:28;;;;;;;22.80;15.15;;;;;;;;;;5051303;28;20389;-62
2022/10/16 00:20:54;;;;;;;24.70;16.60;;;;;;;;;;5051053;28;20025;-64
2022/10/16 00:23:20;;;;;;;23.42;15.13;;;;;;;;;;5032831;28;20029;-64
2022/10/16 00:25:55;;;;;;;24.25;15.73;;;;;;;;;;5033291;28;20024;-63
2022/10/16 00:28:21;;;;;;;22.33;14.63;;;;;;;;;;5051289;28;20025;-63
2022/10/16 00:30:47;;;;;;;20.63;15.15;;;;;;;;;;5050846;28;20028;-64
2022/10/16 00:33:13;;;;;;;23.25;15.32;;;;;;;;;;5032423;28;20115;-62
2022/10/16 00:35:39;;;;;;;22.55;15.45;;;;;;;;;;5050585;28;20021;-61
2022/10/16 00:38:05;;;;;;;22.67;16.67;;;;;;;;;;5050604;28;20021;-64
2022/10/16 00:40:31;;;;;;;23.33;15.32;;;;;;;;;;5050545;28;20032;-64
2022/10/16 00:42:57;;;;;;;22.55;15.65;;;;;;;;;;5050312;28;20045;-63
2022/10/16 00:45:23;;;;;;;22.17;15.68;;;;;;;;;;5050180;28;20032;-61
2022/10/16 00:47:51;;;;;;;23.67;16.23;;;;;;;;;;5032492;28;20028;-62
2022/10/16 00:50:24;;;;;;;25.67;16.90;;;;;;;;;;5050447;28;20507;-64
2022/10/16 00:52:51;;;;;;;23.67;17.35;;;;;;;;;;5050338;28;20037;-63
2022/10/16 00:55:18;;;;;;;26.00;16.73;;;;;;;;;;5049978;28;20070;-63
2022/10/16 00:57:44;;;;;;;23.65;17.33;;;;;;;;;;5050361;28;20029;-64
2022/10/16 01:00:15;;;;;;;23.25;16.77;;;;;;;;;;5050288;28;20029;-62
2022/10/16 01:02:41;;;;;;;23.63;16.35;;;;;;;;;;5050322;28;20025;-64
2022/10/16 01:05:07;;;;;;;23.52;18.10;;;;;;;;;;5049987;28;20029;-65
2022/10/16 01:07:42;;;;;;;22.25;17.27;;;;;;;;;;5031959;28;20064;-65
2022/10/16 01:10:08;;;;;;;22.40;16.10;;;;;;;;;;5050167;28;20062;-63
2022/10/16 01:12:41;;;;;;;24.38;15.85;;;;;;;;;;5050047;28;20112;-63
2022/10/16 01:15:10;;;;;;;22.58;16.15;;;;;;;;;;5049736;28;20481;-62
2022/10/16 01:17:50;;;;;;;21.48;15.57;;;;;;;;;;5049993;28;20029;-63
2022/10/16 01:20:25;;;;;;;20.63;15.25;;;;;;;;;;5050053;28;20021;-63
2022/10/16 01:23:02;;;;;;;21.10;15.23;;;;;;;;;;5050197;28;20470;-63
2022/10/16 01:25:35;;;;;;;20.98;16.23;;;;;;;;;;5051777;28;20021;-63
2022/10/16 01:28:03;;;;;;;22.70;15.52;;;;;;;;;;5032356;28;20029;-61
2022/10/16 01:30:31;;;;;;;22.13;15.25;;;;;;;;;;5049951;28;20064;-63
2022/10/16 01:32:57;;;;;;;26.90;15.52;;;;;;;;;;5032126;28;20029;-62
2022/10/16 01:35:28;;;;;;;23.17;14.73;;;;;;;;;;5049449;28;20489;-62
2022/10/16 01:37:58;;;;;;;20.75;15.07;;;;;;;;;;5050138;28;20388;-61
2022/10/16 01:40:26;;;;;;;26.95;15.23;;;;;;;;;;5032058;28;20029;-62
2022/10/16 01:43:03;;;;;;;21.02;15.63;;;;;;;;;;5050069;28;20075;-63
2022/10/16 01:45:32;;;;;;;24.50;15.48;;;;;;;;;;5050219;28;20381;-64
2022/10/16 01:47:58;;;;;;;22.50;14.65;;;;;;;;;;5049909;28;20036;-62
2022/10/16 01:50:25;;;;;;;23.88;15.07;;;;;;;;;;5050025;28;20037;-62
2022/10/16 01:52:53;;;;;;;23.42;14.82;;;;;;;;;;5049679;28;20036;-64
2022/10/16 01:55:23;;;;;;;26.65;16.52;;;;;;;;;;5049454;28;20197;-63
2022/10/16 01:57:50;;;;;;;21.52;15.82;;;;;;;;;;5031751;28;20021;-62
2022/10/16 02:00:17;;;;;;;21.95;16.73;;;;;;;;;;5031838;28;20021;-62
2022/10/16 02:02:45;;;;;;;21.52;14.40;;;;;;;;;;5049994;28;20025;-61
2022/10/16 02:05:11;;;;;;;20.60;14.23;;;;;;;;;;5049668;28;20032;-62
2022/10/16 02:07:37;;;;;;;20.30;14.05;;;;;;;;;;5031800;28;20029;-62
2022/10/16 02:10:03;;;;;;;21.55;14.80;;;;;;;;;;5031761;28;20071;-62
2022/10/16 02:12:32;;;;;;;22.60;14.38;;;;;;;;;;5049760;28;20086;-61
2022/10/16 02:14:58;;;;;;;20.42;15.02;;;;;;;;;;5049209;28;20107;-62
2022/10/16 02:17:24;;;;;;;22.73;14.98;;;;;;;;;;5031800;28;20037;-61
2022/10/16 02:19:51;;;;;;;22.20;15.40;;;;;;;;;;5051223;28;20029;-64
2022/10/16 02:22:38;;;;;;;23.90;16.50;;;;;;;;;;5053373;28;20056;-62
2022/10/16 02:25:27;;;;;;;20.20;15.38;;;;;;;;;;5052976;28;20461;-61
2022/10/16 02:28:17;;;;;;;21.02;14.93;;;;;;;;;;5043189;28;20037;-63
2022/10/16 02:30:46;;;;;;;22.83;16.15;;;;;;;;;;5043244;28;20503;-63
2022/10/16 02:33:13;;;;;;;19.23;14.70;;;;;;;;;;5052787;28;20040;-64
2022/10/16 02:35:39;;;;;;;24.15;15.68;;;;;;;;;;5053199;28;20024;-62
2022/10/16 02:38:06;;;;;;;20.23;15.15;;;;;;;;;;5052806;28;20021;-64
2022/10/16 02:40:32;;;;;;;19.98;14.18;;;;;;;;;;5035197;28;20025;-63
2022/10/16 02:42:58;;;;;;;20.00;14.65;;;;;;;;;;5052864;28;20033;-63
2022/10/16 02:45:25;;;;;;;19.27;14.45;;;;;;;;;;5052701;28;20029;-63
2022/10/16 02:47:51;;;;;;;20.00;14.95;;;;;;;;;;5052590;28;20035;-62
2022/10/16 02:50:17;;;;;;;20.48;14.85;;;;;;;;;;5034620;28;20029;-64
2022/10/16 02:52:43;;;;;;;21.02;14.80;;;;;;;;;;5052492;28;20155;-64
2022/10/16 02:55:09;;;;;;;23.73;14.15;;;;;;;;;;5034417;28;20489;-63
2022/10/16 02:57:36;;;;;;;22.63;15.13;;;;;;;;;;5034640;28;20021;-62
2022/10/16 03:00:03;;;;;;;22.80;14.70;;;;;;;;;;5052407;28;20083;-63
2022/10/16 03:02:29;;;;;;;19.60;14.98;;;;;;;;;;5052291;28;20096;-63
2022/10/16 03:04:55;;;;;;;20.83;14.63;;;;;;;;;;5052002;28;20052;-62
2022/10/16 03:07:21;;;;;;;20.08;14.40;;;;;;;;;;5034460;28;20024;-62
2022/10/16 03:09:47;;;;;;;20.48;14.95;;;;;;;;;;5052298;28;20088;-62
2022/10/16 03:12:13;;;;;;;19.75;14.45;;;;;;;;;;5052141;28;20090;-61
2022/10/16 03:14:40;;;;;;;20.55;15.25;;;;;;;;;;5051779;28;20108;-63
2022/10/16 03:17:06;;;;;;;18.30;13.55;;;;;;;;;;5052075;28;20021;-63
2022/10/16 03:19:32;;;;;;;18.42;13.60;;;;;;;;;;5052037;28;20020;-63
2022/10/16 03:21:58;;;;;;;20.25;14.38;;;;;;;;;;5051894;28;20468;-62
2022/10/16 03:24:24;;;;;;;20.90;13.65;;;;;;;;;;5051860;28;20044;-61
2022/10/16 03:26:50;;;;;;;20.83;14.88;;;;;;;;;;5052246;28;20074;-62
2022/10/16 03:29:16;;;;;;;19.77;13.57;;;;;;;;;;5051939;28;20021;-62
2022/10/16 03:31:42;;;;;;;20.98;14.27;;;;;;;;;;5051899;28;20063;-62
2022/10/16 03:34:08;;;;;;;20.23;14.10;;;;;;;;;;5051826;28;20029;-62
2022/10/16 03:36:34;;;;;;;18.52;13.90;;;;;;;;;;5051697;28;20495;-61
2022/10/16 03:39:00;;;;;;;23.35;14.20;;;;;;;;;;5052112;28;20051;-61
2022/10/16 03:41:26;;;;;;;19.60;14.85;;;;;;;;;;5051676;28;20147;-62
2022/10/16 03:43:52;;;;;;;20.33;14.40;;;;;;;;;;5033238;28;20051;-62
2022/10/16 03:46:18;;;;;;;20.02;14.63;;;;;;;;;;5051551;28;20463;-61
2022/10/16 03:48:44;;;;;;;24.77;15.15;;;;;;;;;;5053864;28;20028;-63
2022/10/16 03:51:10;;;;;;;21.15;15.25;;;;;;;;;;5053036;28;20366;-64
2022/10/16 03:53:36;;;;;;;20.08;14.57;;;;;;;;;;5051743;28;20021;-64
2022/10/16 03:56:02;;;;;;;24.17;15.25;;;;;;;;;;5051633;28;20029;-62
2022/10/16 03:58:28;;;;;;;21.95;14.70;;;;;;;;;;5051560;28;20039;-61
2022/10/16 04:00:54;;;;;;;20.33;14.48;;;;;;;;;;5051609;28;20493;-61
2022/10/16 04:03:21;;;;;;;19.95;14.13;;;;;;;;;;5051216;28;20025;-62
2022/10/16 04:05:47;;;;;;;20.88;15.52;;;;;;;;;;5033467;28;20361;-62
2022/10/16 04:08:13;;;;;;;20.13;14.80;;;;;;;;;;5033458;28;20115;-62
2022/10/16 04:10:39;;;;;;;19.85;14.50;;;;;;;;;;5051193;28;20444;-63
2022/10/16 04:13:05;;;;;;;22.08;15.15;;;;;;;;;;5050802;28;20408;-63
2022/10/16 04:15:31;;;;;;;22.08;16.00;;;;;;;;;;5051292;28;20029;-62
2022/10/16 04:17:57;;;;;;;22.50;15.10;;;;;;;;;;5050971;28;20032;-63
2022/10/16 04:20:23;;;;;;;19.77;14.68;;;;;;;;;;5050845;28;20056;-63
2022/10/16 04:22:49;;;;;;;21.15;14.70;;;;;;;;;;5048481;28;20477;-64
2022/10/16 04:25:15;;;;;;;21.30;15.18;;;;;;;;;;5032353;28;20115;-63
2022/10/16 04:27:41;;;;;;;23.33;14.20;;;;;;;;;;5032581;28;20028;-64
2022/10/16 04:30:07;;;;;;;19.00;13.77;;;;;;;;;;5050523;28;20477;-64
2022/10/16 04:32:33;;;;;;;19.23;13.38;;;;;;;;;;5050489;28;20029;-63
2022/10/16 04:34:59;;;;;;;19.45;13.32;;;;;;;;;;5086543;22;20055;-63
2022/10/16 04:37:26;;;;;;;18.50;13.57;;;;;;;;;;5072420;28;20039;-63
2022/10/16 04:39:52;;;;;;;18.83;13.38;;;;;;;;;;5056383;28;20025;-63
2022/10/16 04:42:18;;;;;;;20.05;14.20;;;;;;;;;;5051459;28;20070;-63
2022/10/16 04:44:44;;;;;;;20.90;13.75;;;;;;;;;;5051554;28;20419;-63
2022/10/16 04:47:10;;;;;;;20.55;13.18;;;;;;;;;;5051868;28;20021;-62
2022/10/16 04:49:36;;;;;;;18.15;12.95;;;;;;;;;;5051505;28;20056;-62
2022/10/16 04:52:02;;;;;;;20.60;13.82;;;;;;;;;;5051644;28;20025;-63
2022/10/16 04:54:28;;;;;;;18.88;12.48;;;;;;;;;;5050083;28;20032;-63
2022/10/16 04:56:54;;;;;;;20.80;13.02;;;;;;;;;;5067013;28;20029;-63
2022/10/16 04:59:22;;;;;;;19.08;12.23;;;;;;;;;;5053820;28;20396;-62
2022/10/16 05:01:48;;;;;;;18.25;12.00;;;;;;;;;;5053907;28;20043;-62
2022/10/16 05:04:14;;;;;;;21.25;13.13;;;;;;;;;;5071470;28;20013;-63
2022/10/16 05:06:41;;;;;;;18.15;11.93;;;;;;;;;;5053833;28;20021;-63
2022/10/16 05:09:07;;;;;;;18.13;11.50;;;;;;;;;;5071631;28;20052;-62
2022/10/16 05:11:34;;;;;;;20.02;12.25;;;;;;;;;;5053702;28;20029;-62
2022/10/16 05:14:00;;;;;;;16.60;11.80;;;;;;;;;;5071345;28;20495;-63
2022/10/16 05:16:26;;;;;;;18.05;11.52;;;;;;;;;;5071496;28;20534;-62
2022/10/16 05:18:53;;;;;;;18.80;11.65;;;;;;;;;;5071430;28;20024;-63
2022/10/16 05:21:19;;;;;;;17.42;11.75;;;;;;;;;;5071653;28;20031;-62
2022/10/16 05:23:45;;;;;;;16.70;11.15;;;;;;;;;;5071033;28;20095;-62
2022/10/16 05:26:11;;;;;;;20.10;11.82;;;;;;;;;;5071611;28;20524;-63
2022/10/16 05:28:37;;;;;;;20.70;12.32;;;;;;;;;;5071416;28;20086;-62
2022/10/16 05:31:06;;;;;;;17.55;11.30;;;;;;;;;;5071461;28;20020;-61
2022/10/16 05:33:32;;;;;;;17.48;11.57;;;;;;;;;;5071449;28;20052;-63
2022/10/16 05:36:02;;;;;;;16.52;10.82;;;;;;;;;;5053850;28;20036;-64
2022/10/16 05:38:28;;;;;;;16.98;11.43;;;;;;;;;;5071721;28;20069;-63
2022/10/16 05:40:54;;;;;;;16.65;11.35;;;;;;;;;;5053727;28;20029;-63
2022/10/16 05:43:21;;;;;;;17.73;12.15;;;;;;;;;;5071682;28;20021;-63
2022/10/16 05:45:56;;;;;;;19.85;15.00;;;;;;;;;;5053708;28;20059;-63
2022/10/16 05:48:23;;;;;;;18.75;12.70;;;;;;;;;;5071972;28;20085;-63
2022/10/16 05:50:49;;;;;;;16.65;11.48;;;;;;;;;;5071799;28;20029;-63
2022/10/16 05:53:15;;;;;;;17.52;11.43;;;;;;;;;;5071148;28;20024;-63
2022/10/16 05:55:41;;;;;;;16.52;10.88;;;;;;;;;;5073815;28;20510;-63
2022/10/16 05:58:07;;;;;;;16.88;11.20;;;;;;;;;;5074964;28;20028;-62
2022/10/16 06:00:33;;;;;;;16.75;11.65;;;;;;;;;;5056899;28;20024;-63
2022/10/16 06:02:59;;;;;;;15.70;10.60;;;;;;;;;;5074854;28;20028;-62
2022/10/16 06:05:25;;;;;;;16.60;10.60;;;;;;;;;;5074590;28;20028;-61
2022/10/16 06:07:50;;;;;;;17.55;10.75;;;;;;;;;;5074814;28;20032;-60
2022/10/16 06:10:16;;;;;;;16.20;9.82;;;;;;;;;;5074825;28;20046;-63
2022/10/16 06:12:43;;;;;;;16.08;9.85;;;;;;;;;;5074687;28;20383;-63
2022/10/16 06:15:09;;;;;;;15.05;9.88;;;;;;;;;;5074360;28;20507;-63
2022/10/16 06:17:35;;;;;;;17.23;10.13;;;;;;;;;;5074554;28;20443;-63
2022/10/16 06:20:01;;;;;;;15.30;10.00;;;;;;;;;;5074642;28;20081;-63
2022/10/16 06:22:27;;;;;;;15.57;10.20;;;;;;;;;;5056533;28;20047;-62
2022/10/16 06:24:53;;;;;;;15.60;10.25;;;;;;;;;;5054237;28;20028;-62
2022/10/16 06:27:19;;;;;;;15.55;9.60;;;;;;;;;;5054352;28;20031;-60
2022/10/16 06:29:45;;;;;;;16.00;9.77;;;;;;;;;;5054394;28;20031;-61
2022/10/16 06:32:11;;;;;;;14.80;9.65;;;;;;;;;;5054761;28;20025;-63
2022/10/16 06:34:39;;;;;;;15.90;9.32;;;;;;;;;;5054102;28;20043;-63
2022/10/16 06:37:05;;;;;;;14.88;9.70;;;;;;;;;;5054515;28;20438;-63
2022/10/16 06:39:32;;;;;;;15.40;9.23;;;;;;;;;;5056569;28;20028;-62
2022/10/16 06:41:58;;;;;;;15.88;10.57;;;;;;;;;;5041892;28;20436;-62
2022/10/16 06:44:24;;;;;;;17.67;9.77;;;;;;;;;;5056976;28;20029;-61
2022/10/16 06:46:50;;;;;;;16.67;9.27;;;;;;;;;;5054240;28;20083;-62
2022/10/16 06:49:21;;;;;;;15.43;8.80;;;;;;;;;;5054181;28;20032;-62
2022/10/16 06:51:47;;;;;;;15.35;8.93;;;;;;;;;;5053987;28;20013;-63
2022/10/16 06:54:13;;;;;;;16.25;10.05;;;;;;;;;;5053573;28;20029;-62
2022/10/16 06:56:39;;;;;;;15.20;9.52;;;;;;;;;;5036108;28;20017;-62
2022/10/16 06:59:05;;;;;;;15.27;9.48;;;;;;;;;;5053684;28;20195;-62
2022/10/16 07:01:31;;;;;;;15.05;9.05;;;;;;;;;;5053959;28;20025;-63
2022/10/16 07:03:57;;;;;;;17.55;9.13;;;;;;;;;;5053472;28;20029;-62
2022/10/16 07:06:24;;;;;;;15.60;8.85;;;;;;;;;;5053344;28;20132;-61
2022/10/16 07:08:50;;;;;;;16.05;8.90;;;;;;;;;;5053886;28;20040;-62
2022/10/16 07:11:17;;;;;;;14.88;8.93;;;;;;;;;;5053816;28;20044;-62
2022/10/16 07:13:44;;;;;;;17.27;9.18;;;;;;;;;;5035575;28;20033;-61
2022/10/16 07:16:20;;;;;;;14.35;7.90;;;;;;;;;;5035661;28;20099;-62
2022/10/16 07:18:49;;;;;;;15.25;8.80;;;;;;;;;;5053467;28;20036;-60
2022/10/16 07:21:16;;;;;;;15.85;8.32;;;;;;;;;;5053530;28;20043;-60
2022/10/16 07:23:42;;;;;;;15.52;8.70;;;;;;;;;;5053023;28;20053;-59
2022/10/16 07:26:09;;;;;;;14.88;9.13;;;;;;;;;;5053306;28;20400;-60
2022/10/16 07:28:35;;;;;;;15.88;8.75;;;;;;;;;;5035427;28;20028;-61
2022/10/16 07:31:05;;;;;;;14.52;8.63;;;;;;;;;;5053223;28;20508;-63
2022/10/16 07:33:32;;;;;;;15.52;9.00;;;;;;;;;;5052825;28;20033;-57
2022/10/16 07:35:58;;;;;;;17.45;8.02;;;;;;;;;;5053283;28;20036;-60
2022/10/16 07:38:24;;;;;;;14.88;8.13;;;;;;;;;;5052994;28;20036;-61
2022/10/16 07:40:56;;;;;;;15.35;8.77;;;;;;;;;;5035387;28;20111;-61
2022/10/16 07:43:22;;;;;;;15.25;8.18;;;;;;;;;;5035210;28;20021;-62
2022/10/16 07:45:49;;;;;;;15.50;9.15;;;;;;;;;;5035291;28;20116;-58
2022/10/16 07:48:15;;;;;;;15.27;8.30;;;;;;;;;;5035205;28;20032;-61
2022/10/16 07:50:42;;;;;;;16.70;9.45;;;;;;;;;;5052824;28;20025;-65
2022/10/16 07:53:08;;;;;;;15.93;9.05;;;;;;;;;;5052782;28;20484;-62
2022/10/16 07:55:34;;;;;;;15.35;8.00;;;;;;;;;;5052673;28;20036;-62
2022/10/16 07:58:00;;;;;;;17.27;9.30;;;;;;;;;;5052435;28;20037;-64
2022/10/16 08:00:26;;;;;;;15.20;8.10;;;;;;;;;;5034750;28;20032;-62
2022/10/16 08:02:52;;;;;;;14.77;8.07;;;;;;;;;;5052588;28;20052;-63
2022/10/16 08:05:18;;;;;;;14.70;8.20;;;;;;;;;;5052236;28;20044;-64
2022/10/16 08:07:48;;;;;;;14.82;7.97;;;;;;;;;;5052327;28;20029;-63
2022/10/16 08:10:19;;;;;;;16.05;7.72;;;;;;;;;;5052550;28;20021;-63
2022/10/16 08:12:45;;;;;;;14.75;8.20;;;;;;;;;;5052479;28;20051;-63
2022/10/16 08:15:11;;;;;;;15.18;7.63;;;;;;;;;;5034216;28;20025;-61
2022/10/16 08:17:37;;;;;;;14.80;7.85;;;;;;;;;;5051497;28;20028;-63
2022/10/16 08:20:04;;;;;;;15.23;8.02;;;;;;;;;;5052236;28;20447;-64
2022/10/16 08:22:30;;;;;;;15.63;8.20;;;;;;;;;;5034326;28;20553;-64
2022/10/16 08:24:56;;;;;;;14.70;8.13;;;;;;;;;;5051992;28;20115;-63
2022/10/16 08:27:22;;;;;;;16.88;8.48;;;;;;;;;;5034535;28;20088;-59
2022/10/16 08:29:49;;;;;;;17.50;8.88;;;;;;;;;;5052118;28;20025;-61
2022/10/16 08:32:15;;;;;;;16.73;10.40;;;;;;;;;;5052151;28;20032;-63
2022/10/16 08:34:41;;;;;;;17.83;8.02;;;;;;;;;;5051434;28;20037;-60
2022/10/16 08:37:10;;;;;;;16.40;8.00;;;;;;;;;;5034080;28;20051;-62
2022/10/16 08:39:37;;;;;;;13.90;6.50;;;;;;;;;;5034142;28;20021;-62
2022/10/16 08:42:21;;;;;;;15.35;7.57;;;;;;;;;;5051801;28;20021;-59
2022/10/16 08:45:09;;;;;;;14.02;7.28;;;;;;;;;;5051397;28;20500;-61
2022/10/16 08:47:35;;;;;;;14.70;7.70;;;;;;;;;;5051830;28;20029;-62
2022/10/16 08:50:02;;;;;;;16.17;7.30;;;;;;;;;;5033674;28;20121;-63
2022/10/16 08:52:31;;;;;;;15.85;8.20;;;;;;;;;;5052004;28;20083;-63
2022/10/16 08:54:57;;;;;;;18.63;8.05;;;;;;;;;;5051410;28;20029;-63
2022/10/16 08:57:25;;;;;;;17.52;8.02;;;;;;;;;;5060593;28;20040;-64
2022/10/16 09:00:00;;;;;;;16.05;7.32;;;;;;;;;;5071882;28;20020;-63
2022/10/16 09:02:26;;;;;;;15.25;8.10;;;;;;;;;;5071913;28;20392;-62
2022/10/16 09:04:59;;;;;;;17.08;7.75;;;;;;;;;;5071914;28;20162;-64
2022/10/16 09:07:32;;;;;;;15.82;7.60;;;;;;;;;;5062945;28;20029;-63
2022/10/16 09:10:02;;;;;;;23.10;8.23;;;;;;;;;;5053095;28;20020;-64
2022/10/16 09:12:34;;;;;;;17.58;7.82;;;;;;;;;;5061143;28;20576;-63
2022/10/16 09:15:19;;;;;;;17.75;7.63;;;;;;;;;;5061860;28;20025;-62
2022/10/16 09:17:57;;;;;;;18.40;7.88;;;;;;;;;;5048169;28;20031;-63
2022/10/16 09:20:26;;;;;;;13.95;7.30;;;;;;;;;;5070995;28;20035;-61
2022/10/16 09:22:55;;;;;;;15.00;6.68;;;;;;;;;;5051537;28;20112;-61
2022/10/16 09:25:22;;;;;;;15.20;7.25;;;;;;;;;;5046646;28;20518;-63
2022/10/16 09:27:49;;;;;;;14.05;7.03;;;;;;;;;;5051572;28;20029;-62
2022/10/16 09:30:19;;;;;;;14.30;6.80;;;;;;;;;;5073301;28;20032;-62
2022/10/16 09:32:48;;;;;;;15.32;6.80;;;;;;;;;;5074756;28;20113;-64
2022/10/16 09:35:16;;;;;;;13.85;7.35;;;;;;;;;;5074797;28;20519;-65
2022/10/16 09:37:43;;;;;;;15.50;7.38;;;;;;;;;;5075267;28;20025;-64
2022/10/16 09:40:13;;;;;;;17.25;8.18;;;;;;;;;;5074835;28;20025;-63
2022/10/16 09:42:39;;;;;;;23.95;7.50;;;;;;;;;;5056965;28;20111;-61
2022/10/16 09:45:05;;;;;;;15.63;7.80;;;;;;;;;;5074703;28;20434;-63
2022/10/16 09:47:32;;;;;;;19.95;7.90;;;;;;;;;;5054618;28;20050;-63
2022/10/16 09:50:01;;;;;;;17.00;8.05;;;;;;;;;;5055138;28;20024;-63
2022/10/16 09:52:29;;;;;;;14.98;7.47;;;;;;;;;;5055051;28;20519;-62
2022/10/16 09:54:59;;;;;;;14.90;7.57;;;;;;;;;;5036507;28;20485;-64
2022/10/16 09:57:26;;;;;;;14.57;7.35;;;;;;;;;;5036452;28;20587;-63
2022/10/16 09:59:53;;;;;;;16.48;7.47;;;;;;;;;;5054952;28;20021;-62
2022/10/16 10:02:23;;;;;;;17.73;7.53;;;;;;;;;;5037095;28;20028;-63
2022/10/16 10:04:57;;;;;;;15.52;8.07;;;;;;;;;;5054606;28;20021;-64
2022/10/16 10:07:26;;;;;;;16.75;7.93;;;;;;;;;;5054722;28;20029;-62
2022/10/16 10:09:53;;;;;;;19.65;8.00;;;;;;;;;;5054623;28;20022;-62
2022/10/16 10:12:21;;;;;;;17.27;8.15;;;;;;;;;;5054494;28;20029;-64
2022/10/16 10:14:52;;;;;;;15.40;7.80;;;;;;;;;;5036379;28;20416;-62
2022/10/16 10:17:18;;;;;;;16.40;7.85;;;;;;;;;;5054574;28;20033;-65
2022/10/16 10:20:04;;;;;;;16.08;8.98;;;;;;;;;;5036575;28;20488;-65
2022/10/16 10:22:40;;;;;;;16.30;8.15;;;;;;;;;;5041037;28;20504;-64
2022/10/16 10:25:09;;;;;;;15.90;8.27;;;;;;;;;;5074187;28;20055;-64
2022/10/16 10:27:35;;;;;;;;;;;;;;;;;;5074603;28;20025;-63
2022/10/16 10:30:07;;;;;;;17.35;8.15;;;;;;;;;;5074406;28;19920;-64
2022/10/16 10:32:46;;;;;;;15.50;7.90;;;;;;;;;;5074594;28;20028;-65
2022/10/16 10:35:32;;;;;;;16.35;7.97;;;;;;;;;;5104726;22;20297;-62
2022/10/16 10:38:03;;;;;;;16.13;7.63;;;;;;;;;;5091815;28;20028;-62
2022/10/16 10:40:32;;;;;;;16.50;7.10;;;;;;;;;;5092613;28;20020;-62
2022/10/16 10:42:58;;;;;;;;;;;;;;;;;;5093656;28;20071;-59
2022/10/16 10:45:27;;;;;;;16.67;7.38;;;;;;;;;;5105020;28;19911;-58
2022/10/16 10:48:00;;;;;;;15.07;7.32;;;;;;;;;;5113459;28;20068;-60
2022/10/16 10:50:26;;;;;;;14.38;7.05;;;;;;;;;;5113057;28;20019;-60
2022/10/16 10:52:58;;;;;;;15.57;7.18;;;;;;;;;;5113340;28;20077;-62
2022/10/16 10:55:42;;;;;;;17.70;7.60;;;;;;;;;;5111708;28;20096;-61
2022/10/16 10:58:27;;;;;;;16.65;7.30;;;;;;;;;;5112958;28;20471;-60
2022/10/16 11:01:13;;;;;;;15.95;6.82;;;;;;;;;;5112916;28;20020;-61
2022/10/16 11:03:54;;;;;;;14.60;7.82;;;;;;;;;;5111232;28;20043;-61
2022/10/16 11:06:24;;;;;;;16.45;7.55;;;;;;;;;;5112736;28;20031;-64
2022/10/16 11:09:13;;;;;;;14.77;7.82;;;;;;;;;;5112685;28;20020;-63
2022/10/16 11:11:42;;;;;;;15.50;7.13;;;;;;;;;;5102407;28;20066;-62
2022/10/16 11:14:17;;;;;;;14.52;7.80;;;;;;;;;;5112382;28;20144;-61
2022/10/16 11:17:13;;;;;;;14.10;7.90;;;;;;;;;;5111298;28;20099;-61
2022/10/16 11:19:42;;;;;;;14.45;8.30;;;;;;;;;;5095113;28;20100;-63
2022/10/16 11:22:23;;;;;;;15.82;8.02;;;;;;;;;;5111444;28;20487;-62
2022/10/16 11:24:52;;;;;;;13.93;7.70;;;;;;;;;;5092528;28;20035;-63
2022/10/16 11:27:18;;;;;;;;;;;;;;;;;;5092963;28;20612;-63
2022/10/16 11:29:47;;;;;;;15.77;7.93;;;;;;;;;;5092109;28;19904;-63
2022/10/16 11:32:33;;;;;;;15.88;8.30;;;;;;;;;;5090702;28;20043;-63
2022/10/16 11:35:11;;;;;;;14.32;7.82;;;;;;;;;;5091536;28;20024;-62
2022/10/16 11:37:40;;;;;;;14.85;8.75;;;;;;;;;;5092129;28;20024;-63
2022/10/16 11:40:06;;;;;;;;;;;;;;;;;;5091317;28;20028;-62
2022/10/16 11:42:40;;;;;;;14.45;8.30;;;;;;;;;;5091928;28;19907;-63
2022/10/16 11:45:17;;;;;;;14.48;8.20;;;;;;;;;;5090118;28;20383;-61
2022/10/16 11:47:55;;;;;;;15.43;9.40;;;;;;;;;;5091782;28;20028;-63
2022/10/16 11:50:25;;;;;;;15.13;8.80;;;;;;;;;;5091765;28;20067;-65
2022/10/16 11:53:00;;;;;;;17.20;8.82;;;;;;;;;;5091802;28;20032;-64
2022/10/16 11:55:45;;;;;;;15.55;8.80;;;;;;;;;;5090463;28;20070;-63
2022/10/16 11:58:25;;;;;;;16.17;8.85;;;;;;;;;;5091694;28;20031;-62
2022/10/16 12:01:00;;;;;;;16.08;8.65;;;;;;;;;;5091784;28;20023;-63
2022/10/16 12:03:32;;;;;;;15.48;8.65;;;;;;;;;;5091183;28;20028;-61
2022/10/16 12:05:59;;;;;;;14.70;8.75;;;;;;;;;;5092236;28;20028;-59
2022/10/16 12:08:25;;;;;;;15.05;8.65;;;;;;;;;;5091907;28;20498;-59
2022/10/16 12:10:52;;;;;;;14.30;8.60;;;;;;;;;;5091425;28;20030;-64
2022/10/16 12:13:51;;;;;;;16.90;8.75;;;;;;;;;;5090266;28;20102;-65
2022/10/16 12:16:17;;;;;;;16.02;8.98;;;;;;;;;;5035446;28;20149;-63
2022/10/16 12:18:44;;;;;;;16.15;9.32;;;;;;;;;;5089980;28;20074;-60
2022/10/16 12:21:13;;;;;;;14.90;8.80;;;;;;;;;;5091932;28;20448;-62
2022/10/16 12:23:47;;;;;;;14.80;8.77;;;;;;;;;;5091506;28;20020;-65
2022/10/16 12:26:13;;;;;;;15.35;9.05;;;;;;;;;;5091680;28;20032;-63
2022/10/16 12:28:40;;;;;;;15.60;8.93;;;;;;;;;;5091236;28;20016;-60
2022/10/16 12:31:08;;;;;;;15.73;9.15;;;;;;;;;;5091328;28;20020;-61
2022/10/16 12:33:34;;;;;;;15.40;9.18;;;;;;;;;;5090589;28;20450;-64
2022/10/16 12:36:01;;;;;;;15.02;8.50;;;;;;;;;;5090711;28;20063;-60
2022/10/16 12:38:33;;;;;;;17.50;9.20;;;;;;;;;;5091138;28;20031;-61
2022/10/16 12:41:08;;;;;;;14.75;8.50;;;;;;;;;;5091135;28;20043;-63
2022/10/16 12:43:44;;;;;;;15.63;8.73;;;;;;;;;;5090544;28;20016;-60
2022/10/16 12:46:10;;;;;;;14.85;8.90;;;;;;;;;;5090872;28;20438;-63
2022/10/16 12:48:40;;;;;;;15.95;8.35;;;;;;;;;;5090972;28;20027;-60
2022/10/16 12:51:12;;;;;;;15.73;8.50;;;;;;;;;;5090687;28;20106;-62
2022/10/16 12:53:38;;;;;;;18.58;8.77;;;;;;;;;;5090626;28;20020;-61
2022/10/16 12:56:10;;;;;;;14.35;8.50;;;;;;;;;;5090716;28;20460;-63
2022/10/16 12:58:44;;;;;;;16.90;8.32;;;;;;;;;;5091013;28;20492;-63
2022/10/16 13:01:26;;;;;;;17.98;8.60;;;;;;;;;;5091241;28;20081;-63
2022/10/16 13:04:02;;;;;;;15.27;8.20;;;;;;;;;;5090120;28;20028;-63
2022/10/16 13:06:37;;;;;;;14.45;8.20;;;;;;;;;;5089612;28;20545;-60
2022/10/16 13:09:18;;;;;;;17.77;8.90;;;;;;;;;;5090875;28;20026;-62
2022/10/16 13:12:06;;;;;;;18.30;8.50;;;;;;;;;;5091090;28;20052;-62
2022/10/16 13:14:46;;;;;;;15.80;8.70;;;;;;;;;;5090496;28;20452;-62
2022/10/16 13:17:18;;;;;;;18.77;8.30;;;;;;;;;;5091165;28;20032;-61
2022/10/16 13:20:07;;;;;;;15.18;8.48;;;;;;;;;;5090572;28;20024;-63
2022/10/16 13:22:36;;;;;;;14.80;8.15;;;;;;;;;;5090668;28;20020;-64
2022/10/16 13:25:20;;;;;;;16.00;8.57;;;;;;;;;;5089918;28;20017;-62
2022/10/16 13:27:52;;;;;;;14.32;8.60;;;;;;;;;;5090503;28;20031;-64
2022/10/16 13:30:18;;;;;;;15.70;8.57;;;;;;;;;;5090451;28;20391;-63
2022/10/16 13:32:46;;;;;;;14.65;8.50;;;;;;;;;;5089063;28;20031;-63
2022/10/16 13:35:25;;;;;;;16.53;8.50;;;;;;;;;;5089860;28;20032;-63
2022/10/16 13:37:51;;;;;;;14.90;9.00;;;;;;;;;;5090532;28;20120;-65
2022/10/16 13:40:22;;;;;;;16.48;9.52;;;;;;;;;;5090409;28;20023;-67
2022/10/16 13:42:49;;;;;;;15.80;9.50;;;;;;;;;;5089574;28;20043;-60
2022/10/16 13:45:21;;;;;;;16.38;9.18;;;;;;;;;;5088786;28;20110;-62
2022/10/16 13:47:47;;;;;;;17.00;9.02;;;;;;;;;;5090578;28;20025;-64
2022/10/16 13:50:14;;;;;;;14.90;8.63;;;;;;;;;;5090223;28;20437;-62
2022/10/16 13:52:41;;;;;;;16.33;8.80;;;;;;;;;;5090335;28;20396;-61
2022/10/16 13:55:11;;;;;;;14.10;8.50;;;;;;;;;;5090284;28;20020;-64
2022/10/16 13:57:37;;;;;;;15.82;9.20;;;;;;;;;;5090319;28;20035;-62
2022/10/16 14:00:04;;;;;;;17.88;8.88;;;;;;;;;;5090316;28;20020;-59
2022/10/16 14:02:34;;;;;;;14.43;8.77;;;;;;;;;;5089019;28;20028;-63
2022/10/16 14:05:04;;;;;;;15.18;8.68;;;;;;;;;;5090024;28;20018;-61
2022/10/16 14:07:31;;;;;;;17.35;9.25;;;;;;;;;;5090271;28;20040;-64
2022/10/16 14:10:01;;;;;;;16.45;9.23;;;;;;;;;;5090433;28;20024;-62
2022/10/16 14:12:27;;;;;;;14.65;8.50;;;;;;;;;;5090228;28;20016;-63
2022/10/16 14:14:54;;;;;;;15.70;9.07;;;;;;;;;;5088424;28;20039;-63
2022/10/16 14:17:23;;;;;;;15.02;8.73;;;;;;;;;;5092989;28;20016;-62
2022/10/16 14:19:51;;;;;;;14.40;8.57;;;;;;;;;;5094168;28;20103;-64
2022/10/16 14:22:40;;;;;;;15.77;8.87;;;;;;;;;;5093954;28;20038;-61
2022/10/16 14:25:21;;;;;;;15.27;8.43;;;;;;;;;;5085905;28;20071;-62
2022/10/16 14:28:00;;;;;;;14.60;8.35;;;;;;;;;;5093759;28;20024;-59
2022/10/16 14:30:27;;;;;;;15.05;8.75;;;;;;;;;;5093823;28;20369;-51
2022/10/16 14:32:58;;;;;;;14.90;8.70;;;;;;;;;;5091953;28;20027;-51
2022/10/16 14:35:25;;;;;;;14.68;8.50;;;;;;;;;;5093263;28;20386;-54
2022/10/16 14:37:52;;;;;;;16.60;10.23;;;;;;;;;;5094791;28;20024;-55